createdAt,value
2018-03-11T00:01:31.561Z,88.10
2018-03-11T00:03:59.122Z,87.48
2018-03-11T00:06:26.642Z,87.87
2018-03-11T00:08:54.938Z,87.16
2018-03-11T00:11:22.485Z,87.30
2018-03-11T00:13:50.008Z,87.28
2018-03-11T00:16:17.536Z,87.44
2018-03-11T00:18:45.385Z,87.54
2018-03-11T00:21:12.910Z,87.28
2018-03-11T00:23:40.454Z,87.43
2018-03-11T00:26:07.989Z,87.23
2018-03-11T00:28:35.501Z,86.96
2018-03-11T00:31:03.029Z,86.75
2018-03-11T00:33:30.555Z,87.07
2018-03-11T00:35:58.170Z,87.17
2018-03-11T00:38:26.326Z,87.06
2018-03-11T00:40:56.462Z,87.29
2018-03-11T00:43:23.983Z,86.97
2018-03-11T00:45:51.503Z,86.98
2018-03-11T00:48:19.028Z,87.30
2018-03-11T00:50:46.567Z,87.58
2018-03-11T00:53:14.080Z,86.88
2018-03-11T00:55:41.606Z,87.20
2018-03-11T00:58:09.201Z,86.93
2018-03-11T01:00:38.462Z,87.36
2018-03-11T01:03:05.980Z,87.08
2018-03-11T01:05:33.695Z,87.16
2018-03-11T01:08:01.221Z,86.86
2018-03-11T01:10:28.758Z,86.78
2018-03-11T01:12:56.284Z,87.26
2018-03-11T01:15:23.814Z,87.41
2018-03-11T01:17:51.401Z,86.93
2018-03-11T01:20:18.923Z,86.94
2018-03-11T01:22:46.547Z,86.97
2018-03-11T01:25:14.063Z,86.99
2018-03-11T01:27:41.599Z,86.87
2018-03-11T01:30:09.121Z,86.67
2018-03-11T01:32:37.330Z,86.90
2018-03-11T01:35:04.855Z,86.94
2018-03-11T01:37:32.376Z,86.88
2018-03-11T01:39:59.898Z,86.64
2018-03-11T01:42:27.414Z,86.64
2018-03-11T01:44:54.931Z,86.79
2018-03-11T01:47:22.440Z,87.09
2018-03-11T01:49:49.963Z,86.83
2018-03-11T01:52:18.565Z,86.66
2018-03-11T01:54:46.085Z,86.86
2018-03-11T01:57:14.538Z,86.71
2018-03-11T01:59:42.092Z,86.87
2018-03-11T02:02:09.950Z,87.16
2018-03-11T02:04:37.478Z,86.62
2018-03-11T02:07:05.827Z,86.63
2018-03-11T02:09:33.356Z,86.36
2018-03-11T02:12:00.888Z,86.33
2018-03-11T02:14:28.765Z,86.56
2018-03-11T02:16:56.537Z,86.56
2018-03-11T02:19:24.068Z,86.85
2018-03-11T02:21:51.586Z,86.70
2018-03-11T02:24:19.116Z,86.88
2018-03-11T02:26:46.639Z,86.75
2018-03-11T02:29:14.157Z,87.31
2018-03-11T02:31:41.674Z,87.26
2018-03-11T02:34:09.203Z,87.21
2018-03-11T02:36:36.715Z,87.09
2018-03-11T02:39:04.239Z,87.57
2018-03-11T02:41:31.762Z,87.30
2018-03-11T02:43:59.289Z,87.48
2018-03-11T02:46:26.805Z,87.24
2018-03-11T02:48:54.328Z,87.10
2018-03-11T02:51:21.847Z,87.13
2018-03-11T02:53:49.366Z,86.79
2018-03-11T02:56:16.894Z,87.48
2018-03-11T02:58:44.410Z,86.99
2018-03-11T03:01:11.957Z,87.24
2018-03-11T03:03:39.477Z,87.96
2018-03-11T03:06:06.994Z,88.16
2018-03-11T03:08:34.506Z,87.54
2018-03-11T03:11:02.018Z,87.70
2018-03-11T03:13:29.619Z,87.73
2018-03-11T03:15:57.143Z,87.50
2018-03-11T03:18:24.658Z,88.05
2018-03-11T03:20:52.189Z,88.20
2018-03-11T03:23:19.710Z,87.93
2018-03-11T03:25:47.235Z,87.98
2018-03-11T03:28:14.758Z,87.97
2018-03-11T03:30:42.274Z,88.17
2018-03-11T03:33:09.795Z,87.89
2018-03-11T03:35:37.317Z,88.43
2018-03-11T03:38:04.834Z,88.28
2018-03-11T03:40:32.361Z,88.51
2018-03-11T03:42:59.892Z,88.49
2018-03-11T03:45:27.412Z,88.63
2018-03-11T03:47:54.931Z,88.21
2018-03-11T03:50:22.459Z,88.21
2018-03-11T03:52:49.981Z,88.16
2018-03-11T03:55:17.522Z,88.68
2018-03-11T03:57:45.038Z,88.95
2018-03-11T04:00:12.558Z,89.11
2018-03-11T04:02:40.069Z,89.54
2018-03-11T04:05:07.592Z,89.63
2018-03-11T04:07:35.105Z,89.82
2018-03-11T04:10:02.613Z,89.01
2018-03-11T04:12:30.129Z,89.50
2018-03-11T04:14:57.649Z,89.34
2018-03-11T04:17:25.174Z,90.06
2018-03-11T04:19:52.690Z,89.51
2018-03-11T04:22:20.611Z,89.76
2018-03-11T04:24:48.138Z,89.65
2018-03-11T04:27:15.660Z,89.52
2018-03-11T04:29:43.181Z,89.15
2018-03-11T04:32:10.702Z,89.32
2018-03-11T04:34:38.250Z,89.10
2018-03-11T04:37:05.760Z,88.94
2018-03-11T04:39:34.268Z,89.25
2018-03-11T04:42:01.791Z,89.43
2018-03-11T04:44:29.302Z,89.52
2018-03-11T04:46:56.828Z,89.22
2018-03-11T04:49:24.349Z,89.33
2018-03-11T04:51:51.863Z,90.15
2018-03-11T04:54:20.080Z,90.34
2018-03-11T04:56:47.599Z,90.05
2018-03-11T04:59:15.122Z,90.61
2018-03-11T05:01:42.639Z,90.48
2018-03-11T05:04:10.480Z,91.09
2018-03-11T05:06:38.009Z,90.88
2018-03-11T05:09:05.522Z,90.12
2018-03-11T05:11:33.037Z,90.58
2018-03-11T05:14:00.552Z,91.34
2018-03-11T05:16:28.068Z,90.92
2018-03-11T05:18:55.582Z,90.00
2018-03-11T05:21:23.109Z,90.30
2018-03-11T05:23:50.635Z,91.11
2018-03-11T05:26:18.150Z,90.44
2018-03-11T05:28:45.672Z,90.39
2018-03-11T05:31:13.199Z,90.68
2018-03-11T05:33:40.726Z,90.52
2018-03-11T05:36:08.262Z,91.03
2018-03-11T05:38:35.798Z,91.11
2018-03-11T05:41:03.305Z,90.91
2018-03-11T05:43:30.818Z,90.38
2018-03-11T05:45:59.362Z,90.11
2018-03-11T05:48:28.007Z,90.25
2018-03-11T05:50:55.525Z,90.36
2018-03-11T05:53:23.037Z,90.35
2018-03-11T05:55:50.570Z,90.20
2018-03-11T05:58:18.636Z,90.32
2018-03-11T06:00:46.164Z,89.45
2018-03-11T06:03:13.685Z,89.45
2018-03-11T06:05:41.206Z,89.56
2018-03-11T06:08:08.729Z,89.37
2018-03-11T06:10:37.314Z,89.21
2018-03-11T06:13:04.805Z,88.69
2018-03-11T06:15:32.337Z,87.58
2018-03-11T06:17:59.854Z,87.06
2018-03-11T06:20:27.380Z,86.91
2018-03-11T06:22:54.898Z,86.67
2018-03-11T06:25:22.431Z,85.91
2018-03-11T06:27:50.753Z,86.25
2018-03-11T06:30:18.275Z,85.59
2018-03-11T06:32:46.857Z,85.39
2018-03-11T06:35:14.374Z,84.39
2018-03-11T06:37:41.899Z,83.84
2018-03-11T06:40:10.231Z,83.35
2018-03-11T06:42:37.754Z,84.48
2018-03-11T06:45:05.271Z,84.69
2018-03-11T06:47:32.795Z,84.56
2018-03-11T06:50:01.174Z,84.81
2018-03-11T06:52:28.693Z,85.00
2018-03-11T06:54:56.243Z,84.39
2018-03-11T06:57:23.765Z,84.37
2018-03-11T06:59:51.289Z,83.88
2018-03-11T07:02:19.020Z,84.53
2018-03-11T07:04:46.536Z,84.21
2018-03-11T07:07:14.065Z,84.23
2018-03-11T07:09:41.970Z,85.21
2018-03-11T07:12:10.813Z,84.67
2018-03-11T07:14:38.379Z,84.14
2018-03-11T07:17:05.910Z,83.20
2018-03-11T07:19:33.442Z,83.02
2018-03-11T07:22:00.966Z,82.62
2018-03-11T07:24:28.491Z,82.80
2018-03-11T07:26:56.784Z,81.92
2018-03-11T07:29:24.300Z,80.61
2018-03-11T07:31:52.190Z,80.41
2018-03-11T07:34:19.721Z,79.32
2018-03-11T07:36:47.689Z,77.68
2018-03-11T07:39:15.204Z,74.79
2018-03-11T07:41:43.626Z,71.23
2018-03-11T07:44:11.179Z,69.89
2018-03-11T07:46:39.740Z,66.64
2018-03-11T07:49:07.472Z,64.90
2018-03-11T07:51:34.991Z,66.85
2018-03-11T07:54:02.541Z,61.85
2018-03-11T07:56:30.078Z,59.42
2018-03-11T07:58:58.457Z,59.95
2018-03-11T08:01:26.018Z,59.11
2018-03-11T08:03:53.546Z,61.15
2018-03-11T08:06:21.071Z,59.86
2018-03-11T08:08:48.650Z,56.34
2018-03-11T08:11:16.200Z,51.73
2018-03-11T08:13:43.719Z,55.15
2018-03-11T08:16:11.246Z,50.22
2018-03-11T08:18:39.382Z,53.77
2018-03-11T08:21:06.939Z,50.83
2018-03-11T08:23:35.255Z,49.37
2018-03-11T08:26:02.790Z,47.17
2018-03-11T08:28:32.124Z,44.80
2018-03-11T08:30:59.645Z,45.86
2018-03-11T08:33:30.223Z,43.37
2018-03-11T08:35:57.803Z,42.98
2018-03-11T08:38:25.424Z,40.56
2018-03-11T08:40:52.946Z,42.12
2018-03-11T08:43:20.680Z,45.63
2018-03-11T08:45:48.207Z,41.87
2018-03-11T08:48:15.747Z,40.23
2018-03-11T08:50:43.290Z,43.29
2018-03-11T08:53:11.332Z,37.70
2018-03-11T08:55:38.853Z,40.28
2018-03-11T08:58:06.388Z,41.16
2018-03-11T09:00:33.979Z,42.03
2018-03-11T09:03:02.006Z,37.78
2018-03-11T09:05:30.897Z,38.46
2018-03-11T09:07:58.426Z,36.26
2018-03-11T09:10:26.116Z,35.18
2018-03-11T09:12:53.551Z,36.32
2018-03-11T09:15:21.110Z,35.01
2018-03-11T09:17:48.637Z,33.83
2018-03-11T09:20:16.337Z,32.86
2018-03-11T09:22:44.799Z,37.29
2018-03-11T09:25:12.730Z,43.10
2018-03-11T09:27:40.248Z,42.63
2018-03-11T09:30:11.453Z,48.19
2018-03-11T09:32:39.421Z,40.46
2018-03-11T09:35:07.012Z,37.78
2018-03-11T09:37:35.146Z,33.01
2018-03-11T09:40:02.688Z,35.38
2018-03-11T09:42:30.226Z,32.08
2018-03-11T09:44:59.051Z,34.63
2018-03-11T09:47:30.289Z,37.68
2018-03-11T09:49:57.860Z,34.44
2018-03-11T09:52:25.432Z,37.72
2018-03-11T09:54:55.286Z,33.38
2018-03-11T09:57:23.806Z,30.99
2018-03-11T09:59:51.576Z,33.02
2018-03-11T10:02:20.741Z,31.69
2018-03-11T10:04:50.512Z,36.25
2018-03-11T10:07:19.530Z,31.17
2018-03-11T10:09:47.901Z,33.69
2018-03-11T10:12:15.473Z,37.31
2018-03-11T10:14:44.517Z,32.60
2018-03-11T10:17:12.110Z,31.53
2018-03-11T10:19:40.334Z,37.05
2018-03-11T10:22:07.864Z,42.45
2018-03-11T10:24:36.990Z,40.93
2018-03-11T10:27:05.395Z,44.53
2018-03-11T10:29:32.912Z,44.71
2018-03-11T10:32:01.386Z,44.10
2018-03-11T10:34:30.211Z,47.76
2018-03-11T10:36:57.831Z,51.61
2018-03-11T10:39:28.726Z,51.55
2018-03-11T10:41:57.272Z,53.31
2018-03-11T10:44:24.958Z,52.46
2018-03-11T10:46:53.263Z,51.84
2018-03-11T10:49:21.752Z,53.01
2018-03-11T10:51:49.274Z,53.42
2018-03-11T10:54:18.325Z,52.03
2018-03-11T10:56:46.366Z,51.55
2018-03-11T10:59:13.886Z,54.37
2018-03-11T11:02:01.826Z,53.87
2018-03-11T11:07:29.946Z,55.02
2018-03-11T11:09:57.506Z,53.44
2018-03-11T11:12:25.029Z,52.28
2018-03-11T11:14:53.304Z,54.89
2018-03-11T11:17:20.822Z,56.66
2018-03-11T11:19:48.344Z,57.68
2018-03-11T11:22:15.865Z,56.85
2018-03-11T11:24:43.374Z,57.18
2018-03-11T11:27:10.888Z,57.07
2018-03-11T11:29:38.402Z,56.47
2018-03-11T11:32:05.922Z,56.45
2018-03-11T11:34:33.438Z,56.00
2018-03-11T11:37:00.966Z,56.23
2018-03-11T11:39:28.487Z,55.28
2018-03-11T11:41:56.004Z,54.92
2018-03-11T11:44:23.528Z,55.29
2018-03-11T11:46:51.054Z,56.94
2018-03-11T11:49:18.577Z,58.10
2018-03-11T11:51:46.167Z,59.08
2018-03-11T11:54:13.695Z,58.39
2018-03-11T11:56:41.221Z,58.08
2018-03-11T11:59:40.322Z,60.08
2018-03-11T12:02:07.888Z,60.05
2018-03-11T12:04:35.447Z,60.73
2018-03-11T12:07:02.982Z,60.62
2018-03-11T12:09:30.522Z,60.85
2018-03-11T12:11:59.061Z,61.96
2018-03-11T12:14:26.606Z,61.07
2018-03-11T12:16:54.759Z,61.67
2018-03-11T12:19:22.393Z,61.73
2018-03-11T12:21:49.996Z,61.95
2018-03-11T12:24:17.542Z,62.25
2018-03-11T12:26:45.056Z,61.65
2018-03-11T12:29:12.600Z,61.24
2018-03-11T12:31:40.209Z,60.99
2018-03-11T12:34:07.721Z,61.08
2018-03-11T12:36:35.232Z,60.64
2018-03-11T12:39:02.741Z,61.07
2018-03-11T12:41:30.283Z,61.27
2018-03-11T12:43:57.801Z,61.48
2018-03-11T12:46:25.349Z,61.22
2018-03-11T12:48:52.864Z,61.07
2018-03-11T12:51:20.393Z,60.79
2018-03-11T12:53:47.901Z,60.85
2018-03-11T12:56:15.451Z,60.47
2018-03-11T12:58:42.972Z,60.24
2018-03-11T13:01:10.487Z,60.72
2018-03-11T13:03:38.010Z,61.01
2018-03-11T13:06:05.534Z,60.94
2018-03-11T13:08:33.062Z,61.19
2018-03-11T13:11:00.581Z,61.01
2018-03-11T13:13:28.209Z,60.99
2018-03-11T13:15:55.782Z,60.90
2018-03-11T13:18:23.310Z,60.84
2018-03-11T13:21:02.620Z,60.87
2018-03-11T13:23:30.146Z,60.50
2018-03-11T13:25:57.669Z,60.34
2018-03-11T13:28:37.074Z,60.67
2018-03-11T13:31:04.664Z,61.38
2018-03-11T13:33:43.832Z,61.69
2018-03-11T13:36:11.350Z,61.38
2018-03-11T13:38:50.699Z,60.86
2018-03-11T13:41:18.275Z,60.71
2018-03-11T13:43:45.956Z,61.20
2018-03-11T13:46:25.509Z,60.88
2018-03-11T13:48:53.346Z,61.03
2018-03-11T13:51:32.706Z,61.41
2018-03-11T13:54:00.278Z,60.87
2018-03-11T13:56:27.798Z,61.32
2018-03-11T13:58:55.311Z,61.03
2018-03-11T14:01:22.845Z,61.38
2018-03-11T14:03:50.361Z,61.15
2018-03-11T14:06:17.870Z,61.68
2018-03-11T14:08:45.384Z,61.54
2018-03-11T14:11:12.906Z,61.41
2018-03-11T14:13:40.446Z,61.34
2018-03-11T14:16:07.974Z,60.97
2018-03-11T14:18:35.521Z,61.36
2018-03-11T14:21:03.032Z,60.95
2018-03-11T14:23:30.553Z,61.15
2018-03-11T14:25:58.097Z,61.35
2018-03-11T14:28:25.601Z,61.04
2018-03-11T14:30:53.126Z,60.87
2018-03-11T14:33:20.688Z,61.21
2018-03-11T14:35:48.710Z,61.27
2018-03-11T14:38:16.229Z,61.52
2018-03-11T14:40:43.888Z,61.48
2018-03-11T14:43:11.649Z,61.44
2018-03-11T14:45:39.179Z,61.55
2018-03-11T14:48:06.696Z,61.49
2018-03-11T14:50:34.324Z,61.51
2018-03-11T14:53:01.840Z,61.26
2018-03-11T14:55:29.376Z,60.90
2018-03-11T14:57:56.899Z,61.20
2018-03-11T15:00:24.431Z,61.12
2018-03-11T15:02:51.946Z,60.94
2018-03-11T15:05:19.469Z,61.04
2018-03-11T15:07:46.977Z,61.16
2018-03-11T15:10:14.495Z,61.18
2018-03-11T15:12:42.130Z,60.98
2018-03-11T15:15:09.670Z,61.14
2018-03-11T15:17:37.281Z,61.09
2018-03-11T15:20:04.799Z,60.98
2018-03-11T15:22:32.315Z,61.32
2018-03-11T15:24:59.833Z,61.06
2018-03-11T15:27:27.345Z,61.29
2018-03-11T15:29:54.860Z,61.37
2018-03-11T15:32:22.436Z,61.54
2018-03-11T15:34:49.954Z,61.78
2018-03-11T15:37:17.471Z,61.75
2018-03-11T15:39:45.002Z,62.14
2018-03-11T15:42:12.541Z,62.00
2018-03-11T15:44:40.082Z,62.00
2018-03-11T15:47:07.616Z,61.87
2018-03-11T15:49:35.203Z,61.99
2018-03-11T15:52:02.714Z,62.08
2018-03-11T15:54:30.374Z,62.51
2018-03-11T15:56:57.910Z,62.41
2018-03-11T15:59:25.446Z,62.48
2018-03-11T16:01:52.952Z,62.75
2018-03-11T16:04:20.492Z,62.92
2018-03-11T16:06:48.072Z,63.19
2018-03-11T16:09:15.589Z,62.98
2018-03-11T16:11:43.181Z,63.17
2018-03-11T16:14:10.740Z,63.40
2018-03-11T16:16:38.244Z,63.49
2018-03-11T16:19:05.876Z,63.58
2018-03-11T16:21:33.434Z,63.58
2018-03-11T16:24:00.958Z,63.73
2018-03-11T16:26:28.548Z,63.87
2018-03-11T16:28:56.078Z,63.93
2018-03-11T16:31:23.674Z,63.97
2018-03-11T16:33:51.191Z,64.21
2018-03-11T16:36:18.724Z,64.36
2018-03-11T16:38:46.269Z,64.63
2018-03-11T16:41:13.796Z,64.70
2018-03-11T16:43:41.366Z,64.60
2018-03-11T16:46:08.944Z,64.60
2018-03-11T16:48:36.451Z,64.83
2018-03-11T16:51:03.979Z,64.98
2018-03-11T16:53:31.508Z,65.12
2018-03-11T16:55:59.035Z,65.12
2018-03-11T16:58:26.573Z,65.52
2018-03-11T17:00:54.092Z,65.72
2018-03-11T17:03:21.612Z,65.81
2018-03-11T17:05:49.136Z,65.91
2018-03-11T17:08:16.655Z,66.11
2018-03-11T17:10:44.173Z,66.14
2018-03-11T17:13:11.694Z,66.28
2018-03-11T17:15:39.222Z,66.41
2018-03-11T17:18:06.754Z,66.37
2018-03-11T17:20:34.368Z,66.56
2018-03-11T17:23:01.881Z,66.72
2018-03-11T17:25:29.439Z,66.35
2018-03-11T17:27:56.961Z,66.65
2018-03-11T17:30:24.481Z,66.52
2018-03-11T17:32:51.993Z,66.59
2018-03-11T17:35:19.512Z,66.75
2018-03-11T17:37:47.033Z,66.76
2018-03-11T17:40:14.562Z,67.11
2018-03-11T17:42:42.098Z,66.62
2018-03-11T17:45:09.616Z,67.00
2018-03-11T17:47:37.141Z,67.00
2018-03-11T17:50:04.660Z,66.92
2018-03-11T17:52:32.177Z,67.06
2018-03-11T17:54:59.780Z,66.85
2018-03-11T17:57:27.306Z,66.88
2018-03-11T17:59:54.831Z,66.99
2018-03-11T18:02:22.342Z,67.14
2018-03-11T18:04:49.895Z,67.18
2018-03-11T18:07:17.418Z,67.17
2018-03-11T18:09:45.053Z,67.36
2018-03-11T18:12:12.572Z,67.37
2018-03-11T18:14:40.137Z,67.64
2018-03-11T18:17:07.688Z,67.74
2018-03-11T18:19:35.566Z,67.68
2018-03-11T18:22:04.125Z,68.07
2018-03-11T18:24:31.656Z,68.09
2018-03-11T18:26:59.170Z,67.85
2018-03-11T18:29:26.681Z,68.09
2018-03-11T18:31:54.216Z,67.87
2018-03-11T18:34:21.755Z,68.08
2018-03-11T18:36:49.268Z,68.16
2018-03-11T18:39:16.793Z,68.20
2018-03-11T18:41:44.309Z,68.42
2018-03-11T18:44:11.929Z,68.20
2018-03-11T18:46:39.458Z,67.92
2018-03-11T18:49:06.989Z,67.87
2018-03-11T18:51:34.556Z,67.99
2018-03-11T18:54:02.091Z,68.15
2018-03-11T18:56:29.615Z,68.01
2018-03-11T18:58:57.171Z,68.14
2018-03-11T19:01:24.701Z,67.92
2018-03-11T19:03:52.291Z,68.19
2018-03-11T19:06:19.813Z,68.32
2018-03-11T19:08:47.354Z,68.50
2018-03-11T19:11:14.976Z,68.47
2018-03-11T19:13:42.520Z,68.55
2018-03-11T19:16:10.044Z,68.65
2018-03-11T19:18:37.580Z,69.17
2018-03-11T19:21:05.110Z,68.58
2018-03-11T19:23:32.693Z,68.46
2018-03-11T19:26:01.216Z,68.46
2018-03-11T19:28:28.834Z,68.43
2018-03-11T19:30:56.354Z,68.34
2018-03-11T19:33:23.897Z,68.27
2018-03-11T19:35:51.434Z,68.36
2018-03-11T19:38:18.969Z,68.45
2018-03-11T19:40:46.524Z,68.59
2018-03-11T19:43:14.045Z,68.88
2018-03-11T19:45:41.580Z,68.89
2018-03-11T19:48:09.118Z,68.93
2018-03-11T19:50:36.647Z,69.12
2018-03-11T19:53:04.209Z,68.98
2018-03-11T19:55:31.734Z,69.01
2018-03-11T19:57:59.248Z,69.14
2018-03-11T20:00:26.772Z,69.30
2018-03-11T20:02:54.344Z,69.17
2018-03-11T20:05:21.871Z,69.17
2018-03-11T20:07:49.397Z,69.36
2018-03-11T20:10:16.922Z,69.49
2018-03-11T20:12:44.450Z,69.51
2018-03-11T20:15:11.979Z,69.72
2018-03-11T20:17:39.515Z,69.64
2018-03-11T20:20:07.857Z,69.64
2018-03-11T20:22:35.381Z,69.52
2018-03-11T20:25:02.943Z,69.67
2018-03-11T20:27:30.462Z,69.62
2018-03-11T20:29:58.014Z,69.59
2018-03-11T20:32:25.534Z,69.75
2018-03-11T20:34:53.111Z,69.49
2018-03-11T20:37:20.630Z,69.56
2018-03-11T20:39:48.149Z,69.54
2018-03-11T20:42:15.695Z,69.72
2018-03-11T20:44:43.230Z,69.74
2018-03-11T20:47:10.753Z,70.04
2018-03-11T20:49:38.276Z,70.21
2018-03-11T20:52:05.793Z,70.38
2018-03-11T20:54:33.310Z,70.37
2018-03-11T20:57:00.841Z,70.31
2018-03-11T20:59:28.358Z,70.70
2018-03-11T21:01:55.886Z,70.64
2018-03-11T21:04:23.454Z,70.81
2018-03-11T21:06:50.974Z,70.91
2018-03-11T21:09:18.539Z,71.22
2018-03-11T21:11:46.128Z,71.27
2018-03-11T21:14:13.645Z,71.38
2018-03-11T21:16:41.164Z,71.43
2018-03-11T21:19:08.691Z,71.71
2018-03-11T21:21:36.216Z,71.79
2018-03-11T21:24:03.738Z,71.81
2018-03-11T21:26:31.279Z,71.69
2018-03-11T21:28:58.843Z,71.77
2018-03-11T21:31:26.397Z,71.65
2018-03-11T21:33:53.936Z,71.66
2018-03-11T21:36:21.463Z,72.06
2018-03-11T21:38:48.992Z,72.00
2018-03-11T21:41:16.641Z,71.70
2018-03-11T21:43:44.301Z,71.87
2018-03-11T21:46:11.866Z,72.14
2018-03-11T21:48:39.395Z,72.00
2018-03-11T21:51:06.932Z,72.06
2018-03-11T21:53:34.476Z,72.12
2018-03-11T21:56:02.114Z,72.34
2018-03-11T21:58:29.693Z,72.36
2018-03-11T22:00:57.215Z,72.37
2018-03-11T22:03:24.788Z,72.54
2018-03-11T22:05:52.303Z,72.63
2018-03-11T22:08:19.829Z,72.71
2018-03-11T22:10:47.352Z,72.80
2018-03-11T22:13:14.925Z,73.01
2018-03-11T22:15:42.454Z,73.13
2018-03-11T22:18:09.986Z,73.35
2018-03-11T22:20:37.563Z,73.36
2018-03-11T22:23:05.090Z,73.52
2018-03-11T22:25:32.621Z,73.53
2018-03-11T22:28:00.146Z,73.48
2018-03-11T22:30:27.667Z,73.82
2018-03-11T22:32:55.201Z,73.52
2018-03-11T22:35:22.718Z,73.94
2018-03-11T22:37:50.255Z,73.57
2018-03-11T22:40:17.782Z,73.76
2018-03-11T22:42:45.308Z,74.24
2018-03-11T22:45:12.829Z,74.42
2018-03-11T22:47:40.360Z,74.27
2018-03-11T22:50:07.881Z,74.79
2018-03-11T22:52:35.474Z,74.60
2018-03-11T22:55:03.112Z,74.38
2018-03-11T22:57:30.638Z,74.50
2018-03-11T22:59:58.182Z,74.16
2018-03-11T23:02:25.708Z,74.78
2018-03-11T23:04:53.241Z,75.25
2018-03-11T23:07:20.758Z,75.20
2018-03-11T23:09:48.294Z,75.43
2018-03-11T23:12:15.821Z,75.04
2018-03-11T23:14:43.349Z,75.51
2018-03-11T23:17:10.973Z,75.33
2018-03-11T23:19:38.502Z,75.97
2018-03-11T23:22:06.038Z,76.02
2018-03-11T23:24:33.572Z,75.72
2018-03-11T23:27:01.214Z,75.75
2018-03-11T23:29:28.771Z,75.75
2018-03-11T23:31:56.408Z,76.40
2018-03-11T23:34:23.960Z,76.02
2018-03-11T23:36:51.519Z,76.17
2018-03-11T23:39:19.070Z,76.52
2018-03-11T23:41:46.594Z,76.30
2018-03-11T23:44:14.128Z,76.01
2018-03-11T23:46:41.691Z,76.34
2018-03-11T23:49:09.228Z,76.83
2018-03-11T23:51:36.743Z,76.85
2018-03-11T23:54:04.422Z,76.68
2018-03-11T23:56:31.969Z,77.11
2018-03-11T23:58:59.597Z,77.19
